createdAt,value
2023-04-02T00:01:00.514Z,97974.00
2023-04-02T00:03:45.984Z,97971.00
2023-04-02T00:06:30.407Z,97972.40
2023-04-02T00:09:21.297Z,97976.20
2023-04-02T00:11:55.672Z,97979.40
2023-04-02T00:14:30.351Z,97982.60
2023-04-02T00:17:01.521Z,97982.00
2023-04-02T00:19:39.873Z,97982.40
2023-04-02T00:22:16.941Z,97983.20
2023-04-02T00:24:44.727Z,97986.00
2023-04-02T00:27:14.711Z,97986.20
2023-04-02T00:29:54.333Z,97986.20
2023-04-02T00:32:31.022Z,97987.00
2023-04-02T00:35:00.528Z,97987.40
2023-04-02T00:37:39.021Z,97987.60
2023-04-02T00:40:15.344Z,97990.40
2023-04-02T00:42:44.695Z,97987.40
2023-04-02T00:45:36.950Z,97988.20
2023-04-02T00:48:40.121Z,97991.40
2023-04-02T00:51:55.361Z,97992.40
2023-04-02T00:54:29.260Z,97986.60
2023-04-02T00:56:59.052Z,97991.60
2023-04-02T00:59:31.054Z,97994.80
2023-04-02T01:02:26.624Z,97992.40
2023-04-02T01:05:14.852Z,97994.60
2023-04-02T01:08:15.812Z,97998.20
2023-04-02T01:10:49.419Z,98003.40
2023-04-02T01:13:36.772Z,98000.00
2023-04-02T01:16:32.178Z,98001.20
2023-04-02T01:19:50.462Z,98000.40
2023-04-02T01:22:37.488Z,98001.60
2023-04-02T01:25:06.533Z,97995.80
2023-04-02T01:27:54.273Z,98007.20
2023-04-02T01:30:22.762Z,98002.80
2023-04-02T01:32:50.696Z,98005.80
2023-04-02T01:35:19.275Z,98003.00
2023-04-02T01:38:04.891Z,98002.00
2023-04-02T01:40:59.710Z,98005.80
2023-04-02T01:43:35.610Z,98007.40
2023-04-02T01:46:26.353Z,98012.60
2023-04-02T01:49:01.148Z,98018.20
2023-04-02T01:51:34.026Z,98017.20
2023-04-02T01:54:06.065Z,98019.40
2023-04-02T01:56:35.647Z,98021.60
2023-04-02T01:59:05.979Z,98024.40
2023-04-02T02:01:43.242Z,98026.60
2023-04-02T02:04:16.033Z,98028.00
2023-04-02T02:06:45.783Z,98031.60
2023-04-02T02:09:26.142Z,98034.40
2023-04-02T02:11:54.033Z,98036.60
2023-04-02T02:14:28.895Z,98042.40
2023-04-02T02:17:02.127Z,98042.00
2023-04-02T02:19:41.234Z,98048.20
2023-04-02T02:22:38.977Z,98045.00
2023-04-02T02:25:24.699Z,98050.00
2023-04-02T02:28:00.460Z,98055.60
2023-04-02T02:30:47.620Z,98056.00
2023-04-02T02:33:26.835Z,98056.60
2023-04-02T02:36:08.028Z,98066.20
2023-04-02T02:38:35.749Z,98063.20
2023-04-02T02:41:24.719Z,98064.40
2023-04-02T02:44:23.411Z,98062.60
2023-04-02T02:47:23.027Z,98069.00
2023-04-02T02:50:00.464Z,98067.60
2023-04-02T02:52:35.098Z,98069.20
2023-04-02T02:55:12.906Z,98076.20
2023-04-02T02:57:48.769Z,98072.20
2023-04-02T03:00:19.487Z,98079.00
2023-04-02T03:02:49.982Z,98082.20
2023-04-02T03:05:22.958Z,98080.80
2023-04-02T03:07:55.532Z,98088.20
2023-04-02T03:10:32.741Z,98094.60
2023-04-02T03:13:22.355Z,98090.20
2023-04-02T03:16:00.917Z,98091.00
2023-04-02T03:18:54.334Z,98090.00
2023-04-02T03:21:41.626Z,98091.40
2023-04-02T03:24:24.029Z,98096.20
2023-04-02T03:27:17.921Z,98096.40
2023-04-02T03:30:06.265Z,98100.60
2023-04-02T03:32:40.940Z,98102.00
2023-04-02T03:35:46.911Z,98111.00
2023-04-02T03:38:41.101Z,98108.40
2023-04-02T03:41:22.826Z,98114.80
2023-04-02T03:44:00.680Z,98123.20
2023-04-02T03:46:46.169Z,98123.60
2023-04-02T03:49:26.970Z,98128.60
2023-04-02T03:52:06.029Z,98137.40
2023-04-02T03:54:33.954Z,98141.40
2023-04-02T03:57:02.325Z,98148.00
2023-04-02T03:59:41.438Z,98146.40
2023-04-02T04:02:38.271Z,98153.60
2023-04-02T04:05:23.475Z,98157.20
2023-04-02T04:07:59.359Z,98165.40
2023-04-02T04:10:29.218Z,98169.80
2023-04-02T04:13:30.015Z,98173.40
2023-04-02T04:16:10.009Z,98181.80
2023-04-02T04:19:21.898Z,98185.60
2023-04-02T04:21:53.936Z,98194.60
2023-04-02T04:24:25.809Z,98190.40
2023-04-02T04:27:13.928Z,98199.00
2023-04-02T04:30:12.977Z,98201.60
2023-04-02T04:32:58.264Z,98205.40
2023-04-02T04:35:32.664Z,98219.20
2023-04-02T04:38:12.133Z,98217.60
2023-04-02T04:40:53.912Z,98218.60
2023-04-02T04:43:41.032Z,98227.20
2023-04-02T04:46:33.240Z,98232.60
2023-04-02T04:49:24.979Z,98237.80
2023-04-02T04:52:07.511Z,98243.00
2023-04-02T04:54:39.552Z,98250.80
2023-04-02T04:57:27.432Z,98253.60
2023-04-02T05:00:34.670Z,98258.40
2023-04-02T05:03:28.207Z,98263.80
2023-04-02T05:06:08.383Z,98262.20
2023-04-02T05:08:44.004Z,98268.40
2023-04-02T05:12:39.916Z,98274.00
2023-04-02T05:15:30.776Z,98273.40
2023-04-02T05:18:30.532Z,98283.60
2023-04-02T05:21:14.336Z,98283.20
2023-04-02T05:24:22.200Z,98280.00
2023-04-02T05:26:52.058Z,98288.80
2023-04-02T05:29:33.984Z,98289.40
2023-04-02T05:32:08.577Z,98291.60
2023-04-02T05:34:41.258Z,98294.20
2023-04-02T05:37:23.182Z,98300.00
2023-04-02T05:39:58.063Z,98300.60
2023-04-02T05:42:32.450Z,98313.00
2023-04-02T05:45:29.173Z,98308.20
2023-04-02T05:48:02.464Z,98320.60
2023-04-02T05:50:40.315Z,98328.80
2023-04-02T05:53:25.661Z,98325.40
2023-04-02T05:56:19.898Z,98337.20
2023-04-02T05:58:52.726Z,98341.00
2023-04-02T06:01:49.912Z,98341.80
2023-04-02T06:04:37.167Z,98340.80
2023-04-02T06:07:13.707Z,98345.80
2023-04-02T06:10:05.978Z,98345.60
2023-04-02T06:13:03.777Z,98350.80
2023-04-02T06:15:34.634Z,98353.80
2023-04-02T06:18:19.555Z,98363.40
2023-04-02T06:20:47.602Z,98370.20
2023-04-02T06:23:43.431Z,98373.60
2023-04-02T06:26:32.871Z,98384.80
2023-04-02T06:29:28.571Z,98398.40
2023-04-02T06:32:00.868Z,98406.20
2023-04-02T06:34:31.797Z,98406.40
2023-04-02T06:37:05.455Z,98412.60
2023-04-02T06:39:33.246Z,98411.40
2023-04-02T06:42:12.317Z,98423.00
2023-04-02T06:44:40.984Z,98426.00
2023-04-02T06:47:33.848Z,98433.20
2023-04-02T06:50:14.626Z,98437.20
2023-04-02T06:52:50.340Z,98443.60
2023-04-02T06:55:21.034Z,98443.60
2023-04-02T06:57:48.886Z,98446.00
2023-04-02T07:00:38.837Z,98452.60
2023-04-02T07:03:16.691Z,98452.00
2023-04-02T07:05:44.336Z,98455.80
2023-04-02T07:08:12.109Z,98461.20
2023-04-02T07:10:40.723Z,98469.00
2023-04-02T07:13:21.591Z,98462.80
2023-04-02T07:15:53.912Z,98468.40
2023-04-02T07:18:25.771Z,98475.40
2023-04-02T07:20:54.258Z,98477.60
2023-04-02T07:23:22.932Z,98482.40
2023-04-02T07:25:54.682Z,98488.00
2023-04-02T07:28:23.096Z,98487.20
2023-04-02T07:30:52.059Z,98491.20
2023-04-02T07:33:24.675Z,98492.00
2023-04-02T07:35:55.577Z,98501.80
2023-04-02T07:38:23.963Z,98511.20
2023-04-02T07:40:51.961Z,98513.60
2023-04-02T07:43:21.909Z,98509.60
2023-04-02T07:45:51.482Z,98515.00
2023-04-02T07:48:19.494Z,98519.60
2023-04-02T07:50:47.420Z,98519.80
2023-04-02T07:53:40.364Z,98526.80
2023-04-02T07:56:08.441Z,98530.20
2023-04-02T07:58:36.063Z,98539.20
2023-04-02T08:01:04.460Z,98537.60
2023-04-02T08:03:32.918Z,98549.20
2023-04-02T08:06:01.050Z,98549.60
2023-04-02T08:08:28.789Z,98554.00
2023-04-02T08:10:56.588Z,98556.80
2023-04-02T08:13:24.434Z,98561.20
2023-04-02T08:15:52.155Z,98571.00
2023-04-02T08:18:23.623Z,98571.40
2023-04-02T08:20:52.755Z,98575.80
2023-04-02T08:23:21.662Z,98582.60
2023-04-02T08:25:50.897Z,98583.60
2023-04-02T08:28:18.582Z,98588.80
2023-04-02T08:30:46.489Z,98590.00
2023-04-02T08:33:14.226Z,98597.40
2023-04-02T08:35:41.960Z,98592.80
2023-04-02T08:38:16.622Z,98595.60
2023-04-02T08:40:52.191Z,98601.00
2023-04-02T08:43:53.780Z,98602.00
2023-04-02T08:46:56.710Z,98602.20
2023-04-02T08:50:02.144Z,98606.60
2023-04-02T08:52:37.533Z,98610.00
2023-04-02T08:55:26.002Z,98612.60
2023-04-02T08:58:22.945Z,98623.40
2023-04-02T09:00:56.413Z,98623.80
2023-04-02T09:03:48.313Z,98631.60
2023-04-02T09:06:20.879Z,98635.00
2023-04-02T09:08:53.447Z,98637.60
2023-04-02T09:11:35.797Z,98645.00
2023-04-02T09:14:17.677Z,98642.20
2023-04-02T09:16:55.075Z,98649.40
2023-04-02T09:19:32.740Z,98646.40
2023-04-02T09:22:22.854Z,98655.40
2023-04-02T09:24:59.557Z,98655.00
2023-04-02T09:27:36.505Z,98661.20
2023-04-02T09:30:47.596Z,98663.00
2023-04-02T09:33:15.171Z,98674.60
2023-04-02T09:35:51.816Z,98677.60
2023-04-02T09:38:32.685Z,98682.60
2023-04-02T09:41:05.028Z,98683.20
2023-04-02T09:43:38.789Z,98684.80
2023-04-02T09:46:24.960Z,98694.60
2023-04-02T09:49:03.514Z,98695.60
2023-04-02T09:51:34.722Z,98698.80
2023-04-02T09:54:02.392Z,98702.60
2023-04-02T09:56:41.296Z,98698.80
2023-04-02T09:59:17.292Z,98703.00
2023-04-02T10:02:06.021Z,98711.20
2023-04-02T10:04:45.336Z,98712.20
2023-04-02T10:07:37.847Z,98711.00
2023-04-02T10:10:47.848Z,98708.60
2023-04-02T10:13:29.057Z,98708.80
2023-04-02T10:16:14.441Z,98719.60
2023-04-02T10:18:54.119Z,98720.20
2023-04-02T10:21:31.237Z,98727.60
2023-04-02T10:23:59.750Z,98724.00
2023-04-02T10:26:43.537Z,98725.60
2023-04-02T10:29:41.685Z,98727.20
2023-04-02T10:32:20.783Z,98738.60
2023-04-02T10:34:48.374Z,98742.00
2023-04-02T10:37:40.827Z,98744.60
2023-04-02T10:40:29.463Z,98748.40
2023-04-02T10:43:40.672Z,98746.80
2023-04-02T10:46:46.986Z,98746.60
2023-04-02T10:49:33.263Z,98754.60
2023-04-02T10:52:40.371Z,98755.00
2023-04-02T10:55:21.230Z,98758.00
2023-04-02T10:57:49.339Z,98765.40
2023-04-02T11:00:28.730Z,98766.80
2023-04-02T11:03:09.478Z,98769.00
2023-04-02T11:05:51.278Z,98769.40
2023-04-02T11:08:46.434Z,98775.60
2023-04-02T11:11:15.465Z,98777.00
2023-04-02T11:14:06.006Z,98783.60
2023-04-02T11:16:34.667Z,98787.60
2023-04-02T11:19:16.542Z,98794.60
2023-04-02T11:21:57.106Z,98792.40
2023-04-02T11:24:30.240Z,98796.00
2023-04-02T11:27:09.994Z,98800.00
2023-04-02T11:30:16.038Z,98802.20
2023-04-02T11:32:49.325Z,98812.00
2023-04-02T11:35:32.646Z,98815.20
2023-04-02T11:38:12.456Z,98819.40
2023-04-02T11:40:54.847Z,98816.20
2023-04-02T11:43:34.722Z,98824.80
2023-04-02T11:46:30.662Z,98826.00
2023-04-02T11:49:38.297Z,98831.60
2023-04-02T11:52:25.880Z,98829.40
2023-04-02T11:55:24.442Z,98840.20
2023-04-02T11:58:29.626Z,98844.60
2023-04-02T12:01:11.662Z,98844.80
2023-04-02T12:04:01.331Z,98845.40
2023-04-02T12:06:48.181Z,98843.20
2023-04-02T12:09:23.772Z,98850.20
2023-04-02T12:11:55.597Z,98850.20
2023-04-02T12:14:38.234Z,98852.00
2023-04-02T12:17:31.553Z,98850.60
2023-04-02T12:20:22.811Z,98856.00
2023-04-02T12:22:54.989Z,98862.80
2023-04-02T12:25:40.178Z,98864.80
2023-04-02T12:28:11.063Z,98864.80
2023-04-02T12:30:39.780Z,98862.40
2023-04-02T12:33:19.548Z,98864.80
2023-04-02T12:35:53.332Z,98868.40
2023-04-02T12:38:33.460Z,98867.00
2023-04-02T12:41:06.359Z,98871.60
2023-04-02T12:43:38.022Z,98877.20
2023-04-02T12:46:08.682Z,98883.20
2023-04-02T12:48:38.144Z,98883.80
2023-04-02T12:51:06.240Z,98889.00
2023-04-02T12:53:39.144Z,98883.60
2023-04-02T12:56:18.313Z,98885.60
2023-04-02T12:59:01.623Z,98892.00
2023-04-02T13:01:31.703Z,98891.00
2023-04-02T13:04:04.359Z,98901.00
2023-04-02T13:06:33.857Z,98902.60
2023-04-02T13:09:06.218Z,98905.20
2023-04-02T13:11:40.906Z,98907.60
2023-04-02T13:14:21.173Z,98911.00
2023-04-02T13:16:48.976Z,98916.00
2023-04-02T13:19:32.480Z,98922.00
2023-04-02T13:22:04.187Z,98922.20
2023-04-02T13:24:33.761Z,98922.00
2023-04-02T13:27:04.035Z,98925.40
2023-04-02T13:29:36.794Z,98927.60
2023-04-02T13:32:11.386Z,98929.40
2023-04-02T13:34:38.979Z,98934.40
2023-04-02T13:37:06.583Z,98933.00
2023-04-02T13:39:34.270Z,98933.00
2023-04-02T13:42:06.432Z,98937.20
2023-04-02T13:44:37.560Z,98932.20
2023-04-02T13:47:05.462Z,98939.80
2023-04-02T13:49:33.119Z,98942.60
2023-04-02T13:52:04.432Z,98944.00
2023-04-02T13:54:49.326Z,98946.60
2023-04-02T13:57:18.698Z,98952.80
2023-04-02T13:59:46.760Z,98947.20
2023-04-02T14:02:21.929Z,98951.00
2023-04-02T14:05:03.859Z,98957.60
2023-04-02T14:08:08.904Z,98957.60
2023-04-02T14:10:36.641Z,98956.20
2023-04-02T14:13:32.932Z,98955.80
2023-04-02T14:16:25.748Z,98954.40
2023-04-02T14:19:08.749Z,98960.80
2023-04-02T14:22:05.634Z,98958.40
2023-04-02T14:24:45.132Z,98967.60
2023-04-02T14:28:00.804Z,98970.40
2023-04-02T14:31:20.654Z,98968.00
2023-04-02T14:34:29.782Z,98969.20
2023-04-02T14:37:15.587Z,98970.80
2023-04-02T14:39:52.854Z,98977.60
2023-04-02T14:42:37.652Z,98979.60
2023-04-02T14:45:34.563Z,98985.00
2023-04-02T14:48:19.356Z,98984.60
2023-04-02T14:50:52.399Z,98988.00
2023-04-02T14:53:37.353Z,98984.60
2023-04-02T14:56:09.921Z,98988.20
2023-04-02T14:58:43.376Z,98992.60
2023-04-02T15:01:22.366Z,98997.00
2023-04-02T15:04:03.165Z,99006.00
2023-04-02T15:06:38.110Z,99003.80
2023-04-02T15:09:16.452Z,99009.20
2023-04-02T15:12:02.095Z,99012.00
2023-04-02T15:14:44.212Z,99016.40
2023-04-02T15:17:12.507Z,99020.80
2023-04-02T15:19:40.451Z,99029.20
2023-04-02T15:22:54.087Z,99034.40
2023-04-02T15:25:43.313Z,99032.20
2023-04-02T15:28:24.010Z,99045.80
2023-04-02T15:30:59.673Z,99051.00
2023-04-02T15:33:42.403Z,99051.40
2023-04-02T15:36:59.379Z,99053.20
2023-04-02T15:39:39.027Z,99062.20
2023-04-02T15:42:26.254Z,99066.00
2023-04-02T15:45:22.822Z,99063.60
2023-04-02T15:48:46.737Z,99065.40
2023-04-02T15:51:53.771Z,99072.60
2023-04-02T15:54:36.483Z,99074.60
2023-04-02T15:57:17.400Z,99076.00
2023-04-02T16:00:14.446Z,99071.40
2023-04-02T16:03:17.408Z,99084.20
2023-04-02T16:06:00.948Z,99085.60
2023-04-02T16:09:02.270Z,99093.20
2023-04-02T16:11:30.792Z,99092.80
2023-04-02T16:14:13.240Z,99102.60
2023-04-02T16:16:46.119Z,99103.00
2023-04-02T16:19:35.779Z,99107.60
2023-04-02T16:22:20.665Z,99112.60
2023-04-02T16:24:58.245Z,99115.80
2023-04-02T16:27:38.207Z,99115.80
2023-04-02T16:30:33.945Z,99116.00
2023-04-02T16:33:30.480Z,99123.80
2023-04-02T16:36:31.985Z,99131.40
2023-04-02T16:39:22.498Z,99130.60
2023-04-02T16:42:34.791Z,99129.80
2023-04-02T16:45:37.181Z,99132.80
2023-04-02T16:48:47.060Z,99135.60
2023-04-02T16:51:28.335Z,99142.60
2023-04-02T16:54:24.318Z,99144.00
2023-04-02T16:57:31.586Z,99149.60
2023-04-02T17:00:30.744Z,99151.40
2023-04-02T17:03:15.071Z,99153.20
2023-04-02T17:06:04.670Z,99154.60
2023-04-02T17:09:08.044Z,99158.80
2023-04-02T17:11:43.579Z,99165.60
2023-04-02T17:14:20.789Z,99163.60
2023-04-02T17:16:55.897Z,99166.40
2023-04-02T17:19:27.570Z,99165.00
2023-04-02T17:22:03.480Z,99167.80
2023-04-02T17:24:47.580Z,99172.40
2023-04-02T17:27:36.070Z,99170.80
2023-04-02T17:30:35.058Z,99173.20
2023-04-02T17:33:14.139Z,99181.40
2023-04-02T17:35:52.088Z,99182.80
2023-04-02T17:39:08.043Z,99185.60
2023-04-02T17:42:14.472Z,99194.60
2023-04-02T17:45:01.178Z,99193.80
2023-04-02T17:47:52.486Z,99196.60
2023-04-02T17:50:47.947Z,99201.20
2023-04-02T17:53:49.962Z,99207.80
2023-04-02T17:56:36.575Z,99214.40
2023-04-02T17:59:46.971Z,99217.60
2023-04-02T18:02:45.483Z,99222.20
2023-04-02T18:05:51.303Z,99213.40
2023-04-02T18:08:38.655Z,99211.80
2023-04-02T18:11:13.975Z,99219.00
2023-04-02T18:13:55.519Z,99232.00
2023-04-02T18:16:47.217Z,99234.80
2023-04-02T18:19:34.064Z,99238.40
2023-04-02T18:22:24.737Z,99240.80
2023-04-02T18:25:15.129Z,99242.60
2023-04-02T18:28:16.838Z,99245.20
2023-04-02T18:31:00.407Z,99254.80
2023-04-02T18:33:35.964Z,99263.00
2023-04-02T18:36:23.408Z,99260.00
2023-04-02T18:39:07.242Z,99266.20
2023-04-02T18:41:58.844Z,99262.20
2023-04-02T18:44:58.921Z,99272.60
2023-04-02T18:47:33.093Z,99280.80
2023-04-02T18:50:29.043Z,99280.20
2023-04-02T18:52:56.842Z,99278.20
2023-04-02T18:55:30.109Z,99279.40
2023-04-02T18:58:06.320Z,99285.80
2023-04-02T19:00:41.460Z,99291.40
2023-04-02T19:03:28.786Z,99287.20
2023-04-02T19:06:05.534Z,99286.80
2023-04-02T19:08:51.175Z,99289.60
2023-04-02T19:11:29.383Z,99296.20
2023-04-02T19:14:21.488Z,99302.80
2023-04-02T19:17:16.494Z,99307.00
2023-04-02T19:20:26.159Z,99305.80
2023-04-02T19:23:39.555Z,99305.20
2023-04-02T19:26:16.129Z,99313.00
2023-04-02T19:29:23.990Z,99306.60
2023-04-02T19:32:36.044Z,99318.20
2023-04-02T19:35:36.036Z,99311.40
2023-04-02T19:38:55.000Z,99321.80
2023-04-02T19:41:52.207Z,99325.00
2023-04-02T19:44:21.676Z,99321.20
2023-04-02T19:46:51.498Z,99331.40
2023-04-02T19:49:34.980Z,99330.20
2023-04-02T19:52:03.279Z,99335.80
2023-04-02T19:54:31.143Z,99336.80
2023-04-02T19:57:00.310Z,99339.40
2023-04-02T19:59:28.291Z,99340.80
2023-04-02T20:01:58.922Z,99342.40
2023-04-02T20:04:26.661Z,99342.00
2023-04-02T20:06:54.665Z,99348.80
2023-04-02T20:09:22.398Z,99347.40
2023-04-02T20:11:50.409Z,99349.80
2023-04-02T20:14:18.104Z,99351.60
2023-04-02T20:16:46.110Z,99349.60
2023-04-02T20:19:14.246Z,99352.80
2023-04-02T20:21:41.967Z,99350.00
2023-04-02T20:24:09.647Z,99354.80
2023-04-02T20:26:37.767Z,99355.80
2023-04-02T20:29:05.416Z,99360.00
2023-04-02T20:31:34.129Z,99364.00
2023-04-02T20:34:05.045Z,99370.80
2023-04-02T20:36:32.905Z,99371.40
2023-04-02T20:39:00.656Z,99373.80
2023-04-02T20:41:28.365Z,99378.60
2023-04-02T20:43:56.722Z,99378.60
2023-04-02T20:46:24.935Z,99383.80
2023-04-02T20:48:52.649Z,99387.40
2023-04-02T20:51:20.223Z,99391.80
2023-04-02T20:53:47.877Z,99399.60
2023-04-02T20:56:17.460Z,99392.60
2023-04-02T20:58:45.335Z,99395.40
2023-04-02T21:01:26.540Z,99400.20
2023-04-02T21:04:01.117Z,99398.60
2023-04-02T21:06:34.484Z,99409.00
2023-04-02T21:09:09.003Z,99404.60
2023-04-02T21:11:37.235Z,99406.00
2023-04-02T21:14:05.046Z,99405.00
2023-04-02T21:16:33.056Z,99407.00
2023-04-02T21:19:06.712Z,99408.00
2023-04-02T21:21:37.130Z,99413.60
2023-04-02T21:24:08.561Z,99415.80
2023-04-02T21:26:40.218Z,99412.40
2023-04-02T21:29:07.944Z,99417.00
2023-04-02T21:31:41.500Z,99417.00
2023-04-02T21:34:15.256Z,99417.00
2023-04-02T21:36:46.863Z,99421.80
2023-04-02T21:39:21.490Z,99421.80
2023-04-02T21:41:53.176Z,99428.40
2023-04-02T21:44:24.756Z,99429.80
2023-04-02T21:46:54.120Z,99434.40
2023-04-02T21:49:23.563Z,99434.20
2023-04-02T21:51:51.880Z,99439.60
2023-04-02T21:54:19.717Z,99442.00
2023-04-02T21:56:48.188Z,99443.60
2023-04-02T21:59:18.371Z,99440.60
2023-04-02T22:01:49.909Z,99441.00
2023-04-02T22:04:29.436Z,99445.60
2023-04-02T22:06:57.147Z,99447.40
2023-04-02T22:09:26.684Z,99443.00
2023-04-02T22:12:01.886Z,99445.20
2023-04-02T22:14:30.676Z,99447.20
2023-04-02T22:16:58.871Z,99452.20
2023-04-02T22:19:27.700Z,99457.20
2023-04-02T22:21:56.733Z,99454.60
2023-04-02T22:24:25.427Z,99460.80
2023-04-02T22:26:54.059Z,99466.00
2023-04-02T22:29:22.188Z,99462.20
2023-04-02T22:31:50.070Z,99467.00
2023-04-02T22:34:17.735Z,99462.40
2023-04-02T22:36:45.577Z,99466.60
2023-04-02T22:39:13.274Z,99457.20
2023-04-02T22:41:40.994Z,99464.40
2023-04-02T22:44:15.327Z,99456.60
2023-04-02T22:46:43.284Z,99458.20
2023-04-02T22:49:11.824Z,99459.40
2023-04-02T22:51:39.633Z,99458.20
2023-04-02T22:54:07.341Z,99458.40
2023-04-02T22:56:37.307Z,99459.40
2023-04-02T22:59:05.023Z,99458.00
2023-04-02T23:01:35.756Z,99459.60
2023-04-02T23:04:05.178Z,99462.40
2023-04-02T23:06:33.840Z,99463.40
2023-04-02T23:09:01.498Z,99471.80
2023-04-02T23:11:29.264Z,99467.40
2023-04-02T23:13:58.212Z,99474.80
2023-04-02T23:16:29.127Z,99470.20
2023-04-02T23:18:58.396Z,99472.80
2023-04-02T23:21:27.026Z,99478.20
2023-04-02T23:23:55.820Z,99476.20
2023-04-02T23:26:29.456Z,99477.40
2023-04-02T23:28:59.404Z,99473.60
2023-04-02T23:31:28.130Z,99476.20
2023-04-02T23:33:55.890Z,99486.40
2023-04-02T23:36:31.624Z,99484.20
2023-04-02T23:39:04.367Z,99479.40
2023-04-02T23:41:32.134Z,99485.20
2023-04-02T23:44:00.305Z,99481.80
2023-04-02T23:46:29.260Z,99486.20
2023-04-02T23:48:58.707Z,99491.60
2023-04-02T23:51:28.540Z,99476.80
2023-04-02T23:53:56.293Z,99479.20
2023-04-02T23:56:24.857Z,99485.00
2023-04-02T23:58:52.642Z,99483.80
